createdAt,value
2022-11-10T00:04:01.195Z,2.50
2022-11-10T00:06:29.132Z,1.58
2022-11-10T00:09:01.859Z,1.52
2022-11-10T00:11:36.142Z,1.92
2022-11-10T00:14:24.453Z,1.55
2022-11-10T00:17:01.278Z,1.30
2022-11-10T00:19:41.314Z,1.83
2022-11-10T00:22:13.356Z,1.83
2022-11-10T00:24:42.313Z,2.35
2022-11-10T00:27:15.239Z,1.98
2022-11-10T00:29:44.606Z,3.10
2022-11-10T00:32:22.732Z,1.90
2022-11-10T00:34:58.059Z,2.50
2022-11-10T00:37:25.925Z,3.53
2022-11-10T00:39:56.280Z,2.50
2022-11-10T00:42:24.933Z,2.50
2022-11-10T00:45:12.855Z,3.25
2022-11-10T00:50:12.507Z,2.47
2022-11-10T00:52:39.904Z,3.22
2022-11-10T00:55:10.190Z,3.00
2022-11-10T00:57:41.469Z,3.15
2022-11-10T01:00:10.611Z,3.25
2022-11-10T01:02:38.702Z,4.00
2022-11-10T01:05:11.324Z,3.28
2022-11-10T01:07:42.261Z,3.45
2022-11-10T01:10:12.623Z,2.97
2022-11-10T01:12:40.993Z,2.47
2022-11-10T01:15:11.827Z,2.70
2022-11-10T01:17:45.882Z,2.10
2022-11-10T01:20:13.028Z,3.53
2022-11-10T01:22:41.005Z,2.30
2022-11-10T01:25:09.172Z,2.95
2022-11-10T01:27:40.812Z,1.30
2022-11-10T01:30:10.131Z,1.98
2022-11-10T01:32:46.423Z,2.80
2022-11-10T01:35:15.748Z,2.10
2022-11-10T01:37:54.174Z,2.20
2022-11-10T01:40:23.844Z,2.97
2022-11-10T01:42:56.972Z,2.80
2022-11-10T01:45:45.636Z,3.95
2022-11-10T01:48:44.101Z,2.28
2022-11-10T01:51:31.236Z,2.47
2022-11-10T01:54:06.158Z,2.83
2022-11-10T01:56:39.815Z,2.55
2022-11-10T01:59:17.452Z,2.70
2022-11-10T02:01:51.569Z,2.70
2022-11-10T02:07:19.225Z,2.33
2022-11-10T02:12:40.191Z,2.60
2022-11-10T02:15:12.544Z,3.15
2022-11-10T02:17:44.964Z,2.28
2022-11-10T02:20:16.471Z,1.40
2022-11-10T02:22:51.847Z,3.03
2022-11-10T02:25:30.437Z,2.85
2022-11-10T02:27:57.283Z,3.72
2022-11-10T02:30:29.288Z,3.30
2022-11-10T02:32:56.389Z,3.00
2022-11-10T02:35:27.533Z,3.17
2022-11-10T02:38:06.861Z,3.13
2022-11-10T02:40:34.025Z,2.38
2022-11-10T02:43:09.681Z,1.67
2022-11-10T02:45:43.186Z,1.92
2022-11-10T02:48:15.833Z,2.95
2022-11-10T02:50:46.063Z,2.60
2022-11-10T02:53:12.988Z,2.13
2022-11-10T02:55:47.014Z,3.00
2022-11-10T03:00:41.944Z,2.35
2022-11-10T03:03:14.618Z,1.85
2022-11-10T03:05:51.664Z,2.72
2022-11-10T03:08:20.592Z,3.33
2022-11-10T03:10:55.552Z,2.67
2022-11-10T03:13:51.723Z,3.08
2022-11-10T03:16:28.748Z,3.08
2022-11-10T03:19:01.959Z,2.72
2022-11-10T03:21:31.256Z,3.15
2022-11-10T03:24:05.678Z,1.90
2022-11-10T03:29:14.898Z,2.17
2022-11-10T03:31:46.047Z,3.72
2022-11-10T03:34:13.705Z,3.40
2022-11-10T03:36:42.707Z,3.08
2022-11-10T03:39:16.196Z,3.25
2022-11-10T03:41:47.216Z,2.90
2022-11-10T03:44:17.630Z,3.70
2022-11-10T03:49:40.840Z,3.50
2022-11-10T03:52:07.685Z,2.88
2022-11-10T03:54:34.509Z,2.75
2022-11-10T03:57:01.164Z,4.05
2022-11-10T03:59:29.717Z,3.15
2022-11-10T04:02:00.948Z,2.90
2022-11-10T04:04:48.018Z,2.90
2022-11-10T04:07:34.468Z,3.03
2022-11-10T04:10:06.468Z,2.80
2022-11-10T04:12:55.841Z,3.35
2022-11-10T04:15:42.732Z,2.40
2022-11-10T04:18:30.083Z,2.72
2022-11-10T04:21:02.570Z,2.45
2022-11-10T04:23:36.481Z,3.20
2022-11-10T04:26:28.696Z,2.13
2022-11-10T04:29:04.368Z,2.75
2022-11-10T04:31:37.677Z,3.08
2022-11-10T04:34:07.640Z,3.08
2022-11-10T04:36:40.152Z,2.75
2022-11-10T04:39:11.218Z,3.40
2022-11-10T04:41:44.526Z,3.30
2022-11-10T04:44:12.178Z,2.58
2022-11-10T04:46:44.359Z,4.60
2022-11-10T04:49:25.902Z,2.83
2022-11-10T04:54:44.355Z,2.63
2022-11-10T04:57:13.261Z,2.28
2022-11-10T04:59:44.244Z,1.80
2022-11-10T05:02:16.485Z,2.10
2022-11-10T05:04:44.149Z,3.67
2022-11-10T05:07:14.791Z,3.70
2022-11-10T05:09:49.594Z,2.75
2022-11-10T05:12:24.636Z,2.40
2022-11-10T05:17:41.497Z,2.95
2022-11-10T05:20:10.639Z,2.28
2022-11-10T05:22:38.170Z,2.05
2022-11-10T05:25:09.189Z,1.58
2022-11-10T05:27:53.197Z,2.85
2022-11-10T05:30:23.530Z,3.45
2022-11-10T05:32:52.555Z,2.15
2022-11-10T05:35:24.374Z,4.53
2022-11-10T05:37:51.586Z,1.70
2022-11-10T05:40:33.661Z,3.40
2022-11-10T05:43:04.405Z,2.50
2022-11-10T05:45:36.676Z,3.17
2022-11-10T05:48:04.805Z,4.38
2022-11-10T05:50:33.324Z,4.20
2022-11-10T05:53:05.054Z,3.60
2022-11-10T05:55:31.732Z,2.72
2022-11-10T06:00:55.972Z,3.30
2022-11-10T06:03:25.728Z,4.13
2022-11-10T06:05:55.122Z,4.55
2022-11-10T06:08:24.727Z,4.32
2022-11-10T06:10:55.523Z,4.28
2022-11-10T06:13:44.477Z,3.88
2022-11-10T06:16:16.246Z,4.88
2022-11-10T06:18:53.431Z,3.67
2022-11-10T06:22:06.411Z,3.28
2022-11-10T06:24:41.252Z,3.92
2022-11-10T06:30:14.728Z,3.42
2022-11-10T06:33:06.963Z,4.07
2022-11-10T06:35:41.348Z,4.15
2022-11-10T06:38:31.098Z,4.80
2022-11-10T06:43:43.911Z,4.15
2022-11-10T06:46:19.421Z,3.28
2022-11-10T06:48:57.899Z,4.93
2022-11-10T06:51:32.860Z,3.70
2022-11-10T06:54:00.837Z,5.03
2022-11-10T06:56:28.093Z,4.30
2022-11-10T06:59:05.877Z,3.90
2022-11-10T07:01:45.016Z,6.00
2022-11-10T07:04:20.370Z,4.38
2022-11-10T07:07:01.340Z,4.85
2022-11-10T07:12:04.469Z,3.13
2022-11-10T07:17:09.604Z,3.83
2022-11-10T07:19:45.428Z,3.97
2022-11-10T07:25:12.998Z,3.28
2022-11-10T07:28:13.614Z,4.03
2022-11-10T07:30:53.485Z,4.45
2022-11-10T07:33:31.762Z,2.50
2022-11-10T07:36:04.356Z,2.58
2022-11-10T07:38:46.530Z,2.95
2022-11-10T07:41:21.090Z,2.85
2022-11-10T07:46:31.134Z,3.50
2022-11-10T07:48:58.462Z,2.20
2022-11-10T07:51:32.620Z,2.35
2022-11-10T07:54:03.421Z,2.30
2022-11-10T07:56:48.546Z,3.42
2022-11-10T07:59:39.492Z,3.58
2022-11-10T08:02:13.752Z,3.63
2022-11-10T08:07:22.061Z,2.80
2022-11-10T08:09:53.095Z,3.67
2022-11-10T08:12:23.252Z,2.30
2022-11-10T08:14:55.964Z,3.10
2022-11-10T08:17:26.800Z,3.00
2022-11-10T08:20:00.940Z,2.70
2022-11-10T08:22:30.360Z,1.90
2022-11-10T08:25:01.741Z,2.30
2022-11-10T08:27:34.442Z,1.98
2022-11-10T08:30:03.103Z,2.33
2022-11-10T08:32:45.642Z,2.63
2022-11-10T08:38:10.418Z,1.45
2022-11-10T08:43:34.528Z,2.53
2022-11-10T08:46:03.482Z,2.15
2022-11-10T08:48:37.589Z,1.95
2022-11-10T08:51:09.327Z,3.22
2022-11-10T08:53:41.683Z,1.92
2022-11-10T08:59:02.176Z,3.00
2022-11-10T09:01:28.748Z,2.90
2022-11-10T09:04:00.230Z,2.00
2022-11-10T09:06:30.900Z,1.90
2022-11-10T09:09:03.977Z,2.28
2022-11-10T09:11:35.718Z,3.33
2022-11-10T09:14:05.431Z,2.13
2022-11-10T09:21:59.728Z,2.50
2022-11-10T09:24:32.638Z,2.90
2022-11-10T09:26:59.970Z,3.30
2022-11-10T09:29:27.607Z,2.50
2022-11-10T09:31:59.218Z,2.88
2022-11-10T09:34:31.077Z,2.95
2022-11-10T09:37:14.765Z,2.78
2022-11-10T09:39:45.709Z,3.08
2022-11-10T09:42:43.553Z,2.95
2022-11-10T09:45:39.388Z,2.20
2022-11-10T09:48:44.436Z,1.77
2022-11-10T09:51:48.023Z,1.80
2022-11-10T09:54:37.563Z,2.88
2022-11-10T09:57:14.651Z,2.45
2022-11-10T09:59:45.424Z,2.47
2022-11-10T10:02:28.140Z,3.17
2022-11-10T10:05:21.347Z,1.98
2022-11-10T10:08:15.626Z,1.95
2022-11-10T10:11:00.163Z,2.25
2022-11-10T10:13:45.609Z,0.90
2022-11-10T10:16:41.768Z,1.95
2022-11-10T10:19:23.337Z,1.95
2022-11-10T10:22:19.459Z,1.60
2022-11-10T10:27:35.268Z,2.05
2022-11-10T10:30:15.377Z,1.40
2022-11-10T10:32:49.487Z,2.30
2022-11-10T10:35:28.594Z,1.48
2022-11-10T10:37:58.006Z,1.63
2022-11-10T10:43:22.064Z,2.30
2022-11-10T10:46:13.024Z,2.97
2022-11-10T10:48:41.042Z,1.90
2022-11-10T10:54:01.549Z,1.05
2022-11-10T10:56:35.113Z,1.98
2022-11-10T10:59:17.287Z,2.30
2022-11-10T11:01:45.829Z,2.38
2022-11-10T11:04:42.967Z,1.48
2022-11-10T11:07:32.988Z,1.75
2022-11-10T11:10:03.749Z,1.70
2022-11-10T11:12:41.831Z,1.63
2022-11-10T11:15:29.817Z,2.30
2022-11-10T11:18:22.475Z,2.53
2022-11-10T11:21:03.141Z,2.35
2022-11-10T11:23:47.537Z,2.40
2022-11-10T11:26:59.367Z,2.65
2022-11-10T11:29:52.323Z,1.33
2022-11-10T11:32:35.515Z,3.05
2022-11-10T11:35:39.834Z,2.85
2022-11-10T11:38:23.426Z,2.40
2022-11-10T11:41:21.904Z,2.95
2022-11-10T11:44:21.015Z,1.88
2022-11-10T11:47:04.142Z,1.95
2022-11-10T11:49:47.280Z,2.10
2022-11-10T11:52:48.367Z,2.40
2022-11-10T11:55:26.199Z,2.00
2022-11-10T11:58:12.121Z,1.83
2022-11-10T12:01:21.460Z,2.20
2022-11-10T12:04:26.987Z,3.03
2022-11-10T12:07:04.749Z,2.92
2022-11-10T12:10:11.470Z,1.70
2022-11-10T12:12:57.008Z,3.38
2022-11-10T12:16:15.520Z,2.28
2022-11-10T12:19:12.005Z,1.80
2022-11-10T12:21:47.520Z,1.58
2022-11-10T12:24:50.920Z,1.52
2022-11-10T12:27:58.450Z,2.60
2022-11-10T12:30:35.833Z,2.10
2022-11-10T12:33:13.652Z,1.98
2022-11-10T12:35:47.035Z,1.77
2022-11-10T12:38:34.059Z,1.75
2022-11-10T12:41:11.181Z,1.95
2022-11-10T12:43:47.501Z,2.45
2022-11-10T12:46:19.738Z,5.38
2022-11-10T12:49:20.734Z,2.20
2022-11-10T12:52:04.539Z,1.67
2022-11-10T12:54:36.212Z,3.10
2022-11-10T12:57:19.298Z,2.78
2022-11-10T12:59:57.263Z,2.30
2022-11-10T13:02:41.775Z,2.95
2022-11-10T13:05:34.523Z,2.35
2022-11-10T13:11:05.725Z,1.90
2022-11-10T13:13:59.679Z,1.40
2022-11-10T13:16:56.505Z,1.35
2022-11-10T13:19:40.067Z,1.52
2022-11-10T13:22:13.220Z,1.90
2022-11-10T13:24:47.388Z,1.88
2022-11-10T13:30:13.208Z,3.22
2022-11-10T13:32:40.333Z,2.00
2022-11-10T13:35:51.170Z,2.42
2022-11-10T13:41:27.360Z,2.35
2022-11-10T13:44:00.962Z,1.70
2022-11-10T13:47:00.188Z,1.75
2022-11-10T13:50:00.801Z,2.20
2022-11-10T13:52:59.358Z,2.28
2022-11-10T13:58:27.208Z,1.60
2022-11-10T14:01:40.098Z,2.70
2022-11-10T14:04:08.633Z,2.35
2022-11-10T14:06:56.203Z,1.92
2022-11-10T14:13:08.953Z,1.58
2022-11-10T14:16:08.204Z,1.40
2022-11-10T14:18:52.928Z,2.17
2022-11-10T14:21:33.088Z,1.48
2022-11-10T14:24:30.082Z,2.38
2022-11-10T14:27:25.593Z,1.73
2022-11-10T14:30:28.054Z,1.95
2022-11-10T14:32:59.810Z,1.38
2022-11-10T14:35:38.718Z,1.95
2022-11-10T14:38:44.937Z,2.15
2022-11-10T14:44:28.544Z,1.60
2022-11-10T14:47:03.580Z,1.65
2022-11-10T14:49:40.482Z,1.40
2022-11-10T14:54:57.256Z,1.42
2022-11-10T14:57:28.844Z,1.60
2022-11-10T15:00:07.966Z,2.20
2022-11-10T15:05:25.917Z,1.40
2022-11-10T15:07:58.937Z,1.38
2022-11-10T15:10:44.591Z,1.25
2022-11-10T15:13:37.921Z,1.92
2022-11-10T15:19:27.002Z,1.30
2022-11-10T15:21:54.226Z,2.22
2022-11-10T15:24:26.171Z,2.85
2022-11-10T15:26:52.875Z,0.98
2022-11-10T15:29:22.203Z,1.33
2022-11-10T15:31:50.121Z,1.17
2022-11-10T15:34:47.648Z,2.47
2022-11-10T15:37:31.564Z,1.88
2022-11-10T15:40:29.333Z,1.52
2022-11-10T15:43:08.618Z,1.88
2022-11-10T15:45:35.648Z,2.53
2022-11-10T15:48:02.082Z,1.23
2022-11-10T15:50:28.599Z,2.10
2022-11-10T15:52:55.001Z,1.52
2022-11-10T15:55:22.811Z,1.77
2022-11-10T15:57:49.426Z,1.65
2022-11-10T16:00:16.185Z,1.48
2022-11-10T16:02:42.973Z,1.38
2022-11-10T16:05:11.829Z,1.35
2022-11-10T16:07:38.436Z,0.88
2022-11-10T16:10:06.145Z,1.55
2022-11-10T16:12:32.733Z,1.98
2022-11-10T16:14:59.902Z,1.40
2022-11-10T16:17:26.460Z,1.40
2022-11-10T16:19:52.957Z,1.73
2022-11-10T16:22:19.428Z,1.80
2022-11-10T16:24:46.164Z,1.42
2022-11-10T16:27:14.522Z,2.38
2022-11-10T16:29:42.455Z,1.40
2022-11-10T16:32:11.572Z,1.45
2022-11-10T16:34:37.980Z,1.52
2022-11-10T16:37:04.438Z,1.92
2022-11-10T16:39:31.790Z,1.98
2022-11-10T16:41:58.311Z,1.85
2022-11-10T16:44:25.677Z,2.40
2022-11-10T16:46:58.535Z,1.92
2022-11-10T16:49:36.950Z,1.80
2022-11-10T16:52:11.735Z,2.10
2022-11-10T16:54:38.291Z,1.98
2022-11-10T16:57:16.741Z,1.92
2022-11-10T16:59:45.596Z,1.63
2022-11-10T17:02:31.234Z,1.52
2022-11-10T17:04:58.336Z,2.08
2022-11-10T17:07:26.903Z,1.27
2022-11-10T17:09:53.730Z,1.08
2022-11-10T17:12:20.383Z,1.45
2022-11-10T17:14:47.281Z,1.63
2022-11-10T17:17:18.458Z,1.70
2022-11-10T17:19:54.311Z,1.00
2022-11-10T17:22:22.671Z,1.25
2022-11-10T17:24:56.026Z,1.73
2022-11-10T17:27:22.706Z,1.63
2022-11-10T17:29:55.395Z,1.05
2022-11-10T17:32:43.154Z,1.67
2022-11-10T17:37:37.038Z,1.55
2022-11-10T17:40:21.167Z,5.25
2022-11-10T17:42:48.454Z,1.73
2022-11-10T17:45:20.173Z,1.85
2022-11-10T17:47:48.256Z,1.52
2022-11-10T17:50:19.658Z,1.48
2022-11-10T17:52:47.223Z,1.50
2022-11-10T17:55:22.050Z,0.98
2022-11-10T17:57:51.348Z,0.95
2022-11-10T18:00:19.284Z,1.00
2022-11-10T18:02:51.236Z,1.08
2022-11-10T18:05:21.801Z,1.15
2022-11-10T18:07:59.034Z,0.95
2022-11-10T18:10:25.602Z,1.38
2022-11-10T18:12:52.080Z,1.35
2022-11-10T18:15:26.470Z,1.92
2022-11-10T18:17:58.489Z,1.40
2022-11-10T18:20:26.616Z,1.40
2022-11-10T18:22:55.210Z,1.67
2022-11-10T18:25:39.244Z,1.38
2022-11-10T18:30:49.995Z,1.33
2022-11-10T18:33:16.471Z,1.00
2022-11-10T18:35:42.998Z,2.20
2022-11-10T18:38:11.775Z,1.58
2022-11-10T18:40:38.230Z,1.38
2022-11-10T18:43:07.667Z,1.48
2022-11-10T18:45:36.830Z,1.13
2022-11-10T18:48:04.529Z,1.63
2022-11-10T18:50:37.696Z,2.13
2022-11-10T18:53:05.724Z,1.33
2022-11-10T18:55:32.265Z,1.60
2022-11-10T18:57:59.703Z,1.33
2022-11-10T19:00:26.144Z,1.88
2022-11-10T19:02:52.557Z,1.05
2022-11-10T19:05:19.166Z,1.67
2022-11-10T19:07:47.122Z,0.88
2022-11-10T19:10:13.682Z,1.20
2022-11-10T19:12:40.074Z,1.70
2022-11-10T19:15:07.046Z,1.30
2022-11-10T19:17:33.466Z,1.85
2022-11-10T19:19:59.916Z,1.73
2022-11-10T19:22:29.951Z,1.17
2022-11-10T19:25:12.318Z,1.88
2022-11-10T19:27:38.808Z,1.52
2022-11-10T19:30:08.507Z,1.20
2022-11-10T19:32:35.684Z,2.15
2022-11-10T19:35:04.375Z,1.13
2022-11-10T19:37:34.610Z,2.58
2022-11-10T19:40:13.417Z,2.22
2022-11-10T19:42:43.298Z,1.27
2022-11-10T19:45:09.986Z,1.52
2022-11-10T19:47:39.178Z,1.92
2022-11-10T19:50:07.274Z,1.30
2022-11-10T19:57:28.310Z,1.75
2022-11-10T19:59:55.815Z,1.88
2022-11-10T20:02:22.455Z,1.13
2022-11-10T20:05:10.490Z,1.38
2022-11-10T20:07:55.920Z,1.75
2022-11-10T20:10:22.932Z,1.40
2022-11-10T20:12:49.718Z,2.10
2022-11-10T20:15:16.492Z,3.20
2022-11-10T20:17:43.217Z,1.50
2022-11-10T20:20:09.783Z,2.47
2022-11-10T20:22:39.398Z,2.75
2022-11-10T20:25:06.428Z,2.67
2022-11-10T20:27:33.058Z,2.75
2022-11-10T20:30:01.129Z,2.20
2022-11-10T20:32:33.480Z,1.80
2022-11-10T20:35:00.669Z,2.10
2022-11-10T20:37:27.257Z,2.67
2022-11-10T20:39:53.885Z,3.03
2022-11-10T20:42:20.609Z,3.35
2022-11-10T20:44:47.241Z,3.08
2022-11-10T20:47:14.070Z,3.22
2022-11-10T20:49:40.631Z,2.50
2022-11-10T20:52:07.324Z,1.77
2022-11-10T20:54:34.140Z,2.28
2022-11-10T20:57:00.712Z,2.67
2022-11-10T20:59:27.832Z,2.53
2022-11-10T21:01:54.842Z,2.03
2022-11-10T21:04:22.735Z,2.05
2022-11-10T21:06:49.407Z,2.10
2022-11-10T21:09:16.767Z,2.92
2022-11-10T21:12:01.973Z,2.78
2022-11-10T21:14:29.019Z,1.65
2022-11-10T21:17:02.852Z,2.38
2022-11-10T21:19:37.150Z,2.63
2022-11-10T21:26:57.937Z,2.42
2022-11-10T21:29:24.709Z,3.10
2022-11-10T21:31:51.457Z,2.50
2022-11-10T21:34:20.413Z,2.53
2022-11-10T21:36:48.668Z,3.00
2022-11-10T21:39:15.428Z,3.60
2022-11-10T21:41:42.306Z,3.45
2022-11-10T21:44:09.660Z,2.70
2022-11-10T21:46:37.339Z,3.53
2022-11-10T21:49:07.699Z,4.07
2022-11-10T21:51:34.942Z,2.60
2022-11-10T21:54:06.472Z,3.25
2022-11-10T21:56:34.336Z,4.07
2022-11-10T21:59:00.907Z,2.92
2022-11-10T22:01:28.054Z,3.40
2022-11-10T22:03:54.734Z,3.65
2022-11-10T22:06:21.979Z,3.72
2022-11-10T22:08:49.196Z,4.07
2022-11-10T22:11:39.313Z,3.17
2022-11-10T22:14:35.661Z,3.60
2022-11-10T22:17:23.334Z,5.43
2022-11-10T22:19:50.186Z,3.92
2022-11-10T22:22:16.723Z,4.80
2022-11-10T22:24:43.302Z,4.75
2022-11-10T22:27:11.345Z,4.97
2022-11-10T22:29:37.906Z,4.72
2022-11-10T22:32:04.735Z,5.13
2022-11-10T22:34:32.431Z,5.03
2022-11-10T22:37:01.950Z,4.88
2022-11-10T22:39:51.571Z,6.05
2022-11-10T22:42:36.731Z,4.82
2022-11-10T22:45:04.094Z,4.95
2022-11-10T22:47:50.589Z,5.30
2022-11-10T22:50:17.761Z,5.28
2022-11-10T22:52:45.927Z,4.78
2022-11-10T22:57:41.634Z,5.05
2022-11-10T23:00:11.954Z,5.07
2022-11-10T23:02:39.033Z,4.32
2022-11-10T23:05:07.018Z,5.97
2022-11-10T23:07:35.006Z,5.35
2022-11-10T23:10:01.893Z,4.70
2022-11-10T23:12:29.678Z,5.18
2022-11-10T23:14:56.384Z,5.85
2022-11-10T23:17:23.156Z,3.90
2022-11-10T23:19:49.806Z,4.88
2022-11-10T23:22:16.938Z,5.22
2022-11-10T23:24:43.552Z,4.13
2022-11-10T23:27:10.200Z,4.78
2022-11-10T23:29:36.842Z,4.63
2022-11-10T23:32:03.762Z,5.22
2022-11-10T23:34:30.509Z,3.38
2022-11-10T23:36:57.010Z,2.95
2022-11-10T23:39:24.202Z,5.68
2022-11-10T23:41:52.208Z,4.50
2022-11-10T23:44:18.855Z,2.47
2022-11-10T23:46:45.498Z,3.83
2022-11-10T23:49:12.254Z,5.13
2022-11-10T23:51:41.875Z,5.97
2022-11-10T23:54:08.778Z,5.32
2022-11-10T23:56:35.497Z,6.00
2022-11-10T23:59:03.717Z,5.43
